This is the latest recevied weather packets stored in our database for station/object SP2MHC-2. If no packets are shown the sender has not sent any weather packets the latest 10 day(s).
| Time | Temp. | Humidity | Pressure | Rain* | Wind** | Luminosity | Snow |
|---|---|---|---|---|---|---|---|
| 1777664377 | 10° C | 56% | 1021.9 hPa | - | - | - | - |
| 1777663479 | 10° C | 55% | 1022.1 hPa | - | - | - | - |
| 1777663477 | 10° C | 55% | 1022.1 hPa | - | - | - | - |
| 1777662612 | 11.11° C | 52% | 1022 hPa | - | - | - | - |
| 1777662579 | 11.11° C | 52% | 1022 hPa | - | - | - | - |
| 1777662577 | 11.11° C | 52% | 1022 hPa | - | - | - | - |
| 1777661711 | 10.56° C | 52% | 1022 hPa | - | - | - | - |
| 1777661678 | 10.56° C | 52% | 1022 hPa | - | - | - | - |
| 1777661677 | 10.56° C | 52% | 1022 hPa | - | - | - | - |
| 1777660778 | 12.22° C | 48% | 1021.8 hPa | - | - | - | - |
| 1777660777 | 12.22° C | 48% | 1021.8 hPa | - | - | - | - |
| 1777659912 | 13.33° C | 46% | 1021.6 hPa | - | - | - | - |
| 1777659878 | 13.33° C | 46% | 1021.6 hPa | - | - | - | - |
| 1777659877 | 13.33° C | 46% | 1021.6 hPa | - | - | - | - |
| 1777659016 | 16.11° C | 42% | 1021.4 hPa | - | - | - | - |
| 1777658978 | 16.11° C | 42% | 1021.4 hPa | - | - | - | - |
| 1777658976 | 16.11° C | 42% | 1021.4 hPa | - | - | - | - |
| 1777658079 | 17.22° C | 40% | 1021.3 hPa | - | - | - | - |
| 1777658076 | 17.22° C | 40% | 1021.3 hPa | - | - | - | - |
| 1777657210 | 18.33° C | 38% | 1021.3 hPa | - | - | - | - |
| 1777657178 | 18.33° C | 38% | 1021.3 hPa | - | - | - | - |
| 1777657176 | 18.33° C | 38% | 1021.3 hPa | - | - | - | - |
| 1777656279 | 18.89° C | 37% | 1021.2 hPa | - | - | - | - |
| 1777656276 | 18.89° C | 37% | 1021.2 hPa | - | - | - | - |
| 1777655410 | 19.44° C | 35% | 1021.2 hPa | - | - | - | - |
* Rain since midnight (hover to see other rain measurements)
** Current wind speed in m/s (hover to see current wind gust speed)